createdAt,value
2018-09-23T00:01:38.044Z,22.30
2018-09-23T00:04:07.323Z,22.30
2018-09-23T00:06:36.545Z,22.30
2018-09-23T00:09:07.585Z,22.30
2018-09-23T00:11:36.780Z,22.30
2018-09-23T00:14:05.951Z,22.30
2018-09-23T00:16:35.182Z,22.30
2018-09-23T00:19:04.424Z,22.30
2018-09-23T00:21:33.619Z,22.30
2018-09-23T00:24:02.840Z,22.30
2018-09-23T00:26:32.101Z,22.30
2018-09-23T00:29:01.289Z,22.30
2018-09-23T00:31:30.467Z,22.30
2018-09-23T00:33:59.633Z,22.30
2018-09-23T00:36:28.933Z,22.30
2018-09-23T00:38:58.110Z,22.30
2018-09-23T00:41:27.356Z,22.30
2018-09-23T00:43:56.537Z,22.30
2018-09-23T00:46:25.856Z,22.30
2018-09-23T00:48:55.053Z,22.30
2018-09-23T00:51:24.360Z,22.30
2018-09-23T00:53:53.557Z,22.30
2018-09-23T00:56:22.752Z,22.30
2018-09-23T00:58:51.947Z,22.30
2018-09-23T01:01:21.160Z,22.20
2018-09-23T01:03:50.344Z,22.30
2018-09-23T01:06:19.554Z,22.20
2018-09-23T01:08:48.744Z,22.20
2018-09-23T01:11:17.920Z,22.20
2018-09-23T01:13:47.212Z,22.20
2018-09-23T01:16:16.440Z,22.30
2018-09-23T01:18:45.612Z,22.20
2018-09-23T01:21:14.780Z,22.20
2018-09-23T01:23:43.975Z,22.20
2018-09-23T01:26:13.608Z,22.20
2018-09-23T01:28:42.815Z,22.20
2018-09-23T01:31:12.032Z,22.20
2018-09-23T01:33:41.692Z,22.20
2018-09-23T01:36:10.941Z,22.20
2018-09-23T01:38:40.137Z,22.20
2018-09-23T01:41:09.388Z,22.20
2018-09-23T01:43:38.583Z,22.20
2018-09-23T01:46:07.885Z,22.20
2018-09-23T01:48:37.061Z,22.20
2018-09-23T01:51:06.540Z,22.20
2018-09-23T01:53:35.721Z,22.20
2018-09-23T01:56:04.983Z,22.20
2018-09-23T01:58:34.133Z,22.20
2018-09-23T02:01:03.330Z,22.20
2018-09-23T02:03:32.509Z,22.20
2018-09-23T02:06:02.091Z,22.20
2018-09-23T02:08:31.285Z,22.20
2018-09-23T02:11:00.450Z,22.20
2018-09-23T02:13:29.632Z,22.20
2018-09-23T02:15:58.800Z,22.20
2018-09-23T02:18:28.023Z,22.20
2018-09-23T02:20:57.196Z,22.20
2018-09-23T02:23:26.393Z,22.20
2018-09-23T02:25:55.563Z,22.20
2018-09-23T02:28:24.896Z,22.20
2018-09-23T02:30:54.090Z,22.20
2018-09-23T02:33:23.265Z,22.20
2018-09-23T02:35:52.466Z,22.20
2018-09-23T02:38:21.719Z,22.20
2018-09-23T02:40:50.923Z,22.10
2018-09-23T02:43:20.107Z,22.10
2018-09-23T02:45:49.489Z,22.10
2018-09-23T02:48:18.808Z,22.20
2018-09-23T02:50:47.991Z,22.10
2018-09-23T02:53:17.155Z,22.10
2018-09-23T02:55:46.347Z,22.10
2018-09-23T02:58:15.636Z,22.10
2018-09-23T03:00:44.848Z,22.10
2018-09-23T03:03:14.030Z,22.10
2018-09-23T03:05:43.680Z,22.10
2018-09-23T03:08:13.088Z,22.10
2018-09-23T03:10:42.328Z,22.10
2018-09-23T03:13:11.507Z,22.10
2018-09-23T03:15:40.706Z,22.10
2018-09-23T03:18:09.907Z,22.10
2018-09-23T03:20:39.149Z,22.10
2018-09-23T03:23:08.374Z,22.10
2018-09-23T03:25:37.548Z,22.10
2018-09-23T03:28:06.848Z,22.10
2018-09-23T03:30:37.297Z,22.10
2018-09-23T03:33:06.737Z,22.10
2018-09-23T03:35:36.149Z,22.10
2018-09-23T03:38:05.709Z,22.10
2018-09-23T03:40:35.361Z,22.10
2018-09-23T03:43:05.238Z,22.10
2018-09-23T03:45:34.552Z,22.10
2018-09-23T03:48:03.897Z,22.10
2018-09-23T03:50:33.286Z,22.10
2018-09-23T03:53:02.649Z,22.10
2018-09-23T03:55:31.863Z,22.10
2018-09-23T03:58:01.193Z,22.10
2018-09-23T04:00:30.439Z,22.10
2018-09-23T04:02:59.690Z,22.10
2018-09-23T04:05:28.971Z,22.10
2018-09-23T04:07:58.254Z,22.10
2018-09-23T04:10:27.554Z,22.10
2018-09-23T04:12:57.191Z,22.10
2018-09-23T04:15:26.571Z,22.10
2018-09-23T04:17:55.996Z,22.10
2018-09-23T04:20:25.293Z,22.10
2018-09-23T04:22:54.740Z,22.10
2018-09-23T04:25:24.072Z,22.10
2018-09-23T04:27:53.475Z,22.10
2018-09-23T04:30:23.004Z,22.10
2018-09-23T04:32:52.298Z,22.10
2018-09-23T04:35:21.607Z,22.10
2018-09-23T04:37:50.933Z,22.10
2018-09-23T04:40:20.275Z,22.10
2018-09-23T04:42:49.581Z,22.10
2018-09-23T04:45:18.982Z,22.10
2018-09-23T04:47:48.287Z,22.10
2018-09-23T04:50:17.612Z,22.10
2018-09-23T04:52:46.820Z,22.10
2018-09-23T04:55:16.190Z,22.10
2018-09-23T04:57:45.499Z,22.10
2018-09-23T05:00:14.789Z,22.10
2018-09-23T05:02:44.062Z,22.10
2018-09-23T05:05:13.373Z,22.10
2018-09-23T05:07:42.730Z,22.10
2018-09-23T05:10:12.117Z,22.10
2018-09-23T05:12:41.426Z,22.10
2018-09-23T05:15:10.700Z,22.10
2018-09-23T05:17:40.377Z,22.10
2018-09-23T05:20:09.637Z,22.10
2018-09-23T05:22:38.895Z,22.10
2018-09-23T05:25:08.188Z,22.20
2018-09-23T05:27:37.631Z,22.10
2018-09-23T05:30:06.963Z,22.10
2018-09-23T05:32:36.298Z,22.10
2018-09-23T05:35:05.687Z,22.10
2018-09-23T05:37:35.036Z,22.20
2018-09-23T05:40:04.285Z,22.30
2018-09-23T05:42:33.705Z,22.40
2018-09-23T05:45:02.948Z,22.50
2018-09-23T05:47:32.361Z,22.50
2018-09-23T05:50:01.665Z,22.60
2018-09-23T05:52:30.976Z,22.50
2018-09-23T05:55:00.356Z,22.60
2018-09-23T05:57:29.732Z,22.60
2018-09-23T05:59:59.912Z,22.70
2018-09-23T06:02:29.633Z,22.70
2018-09-23T06:04:59.027Z,22.70
2018-09-23T06:07:28.357Z,22.60
2018-09-23T06:09:57.666Z,22.60
2018-09-23T06:12:26.888Z,22.60
2018-09-23T06:14:56.229Z,22.50
2018-09-23T06:17:25.562Z,22.50
2018-09-23T06:19:55.093Z,22.50
2018-09-23T06:22:24.390Z,22.50
2018-09-23T06:24:53.685Z,22.50
2018-09-23T06:27:22.961Z,22.50
2018-09-23T06:29:52.246Z,22.50
2018-09-23T06:32:21.660Z,22.50
2018-09-23T06:34:50.985Z,22.40
2018-09-23T06:37:20.312Z,22.40
2018-09-23T06:39:49.667Z,22.30
2018-09-23T06:42:18.912Z,22.20
2018-09-23T06:44:48.244Z,22.20
2018-09-23T06:47:17.773Z,22.20
2018-09-23T06:49:47.117Z,22.20
2018-09-23T06:52:16.404Z,22.20
2018-09-23T06:54:45.948Z,22.10
2018-09-23T06:57:15.476Z,22.20
2018-09-23T06:59:44.874Z,22.30
2018-09-23T07:02:14.231Z,22.30
2018-09-23T07:04:43.600Z,22.30
2018-09-23T07:07:13.153Z,22.40
2018-09-23T07:09:42.404Z,22.40
2018-09-23T07:12:11.678Z,22.50
2018-09-23T07:14:41.019Z,22.50
2018-09-23T07:17:10.736Z,22.50
2018-09-23T07:19:40.154Z,22.50
2018-09-23T07:22:09.443Z,22.60
2018-09-23T07:24:38.708Z,22.60
2018-09-23T07:27:09.239Z,22.60
2018-09-23T07:29:38.640Z,22.70
2018-09-23T07:32:07.911Z,22.70
2018-09-23T07:34:37.477Z,22.80
2018-09-23T07:37:07.058Z,22.90
2018-09-23T07:39:36.468Z,23.00
2018-09-23T07:42:05.729Z,23.20
2018-09-23T07:44:35.053Z,23.40
2018-09-23T07:47:04.359Z,23.70
2018-09-23T07:49:33.733Z,24.40
2018-09-23T07:52:03.176Z,25.00
2018-09-23T07:54:32.479Z,25.40
2018-09-23T07:57:01.844Z,25.60
2018-09-23T07:59:31.192Z,25.70
2018-09-23T08:02:00.450Z,25.90
2018-09-23T08:04:29.709Z,25.90
2018-09-23T08:06:59.176Z,25.90
2018-09-23T08:09:28.539Z,25.90
2018-09-23T08:11:58.346Z,26.00
2018-09-23T08:14:27.852Z,26.00
2018-09-23T08:16:57.078Z,25.80
2018-09-23T08:19:26.502Z,25.30
2018-09-23T08:21:55.820Z,24.70
2018-09-23T08:24:25.168Z,24.50
2018-09-23T08:26:54.595Z,24.30
2018-09-23T08:29:23.949Z,24.20
2018-09-23T08:31:53.377Z,24.10
2018-09-23T08:34:22.700Z,24.10
2018-09-23T08:36:52.077Z,24.10
2018-09-23T08:39:21.724Z,24.00
2018-09-23T08:41:50.987Z,23.90
2018-09-23T08:44:20.430Z,23.80
2018-09-23T08:46:50.746Z,23.80
2018-09-23T08:49:20.277Z,23.80
2018-09-23T08:51:49.615Z,23.70
2018-09-23T08:54:18.968Z,23.70
2018-09-23T08:56:48.476Z,23.70
2018-09-23T08:59:17.901Z,23.70
2018-09-23T09:01:47.273Z,23.60
2018-09-23T09:04:17.009Z,23.50
2018-09-23T09:06:46.401Z,23.50
2018-09-23T09:09:15.712Z,23.50
2018-09-23T09:11:45.027Z,23.50
2018-09-23T09:14:14.342Z,23.50
2018-09-23T09:16:43.681Z,23.50
2018-09-23T09:19:13.096Z,23.50
2018-09-23T09:21:42.366Z,23.50
2018-09-23T09:24:11.799Z,23.40
2018-09-23T09:26:41.176Z,23.40
2018-09-23T09:29:10.616Z,23.40
2018-09-23T09:31:40.128Z,23.40
2018-09-23T09:34:09.440Z,23.40
2018-09-23T09:36:38.813Z,23.40
2018-09-23T09:39:10.214Z,23.40
2018-09-23T09:41:40.104Z,23.40
2018-09-23T09:44:09.648Z,23.40
2018-09-23T09:46:38.989Z,23.40
2018-09-23T09:49:08.268Z,23.40
2018-09-23T09:51:37.574Z,23.40
2018-09-23T09:54:07.284Z,23.40
2018-09-23T09:56:36.814Z,23.40
2018-09-23T09:59:06.182Z,23.40
2018-09-23T10:01:35.537Z,23.40
2018-09-23T10:04:04.922Z,23.40
2018-09-23T10:06:34.329Z,23.40
2018-09-23T10:09:04.593Z,23.40
2018-09-23T10:11:34.112Z,23.40
2018-09-23T10:14:03.433Z,23.40
2018-09-23T10:16:33.875Z,23.40
2018-09-23T10:19:03.289Z,23.40
2018-09-23T10:21:32.689Z,23.40
2018-09-23T10:24:02.054Z,23.40
2018-09-23T10:26:31.709Z,23.40
2018-09-23T10:29:00.996Z,23.40
2018-09-23T10:31:30.428Z,23.50
2018-09-23T10:33:59.735Z,23.50
2018-09-23T10:36:29.129Z,23.50
2018-09-23T10:38:58.469Z,23.50
2018-09-23T10:41:27.847Z,23.50
2018-09-23T10:43:57.177Z,23.40
2018-09-23T10:46:26.501Z,23.50
2018-09-23T10:48:55.861Z,23.50
2018-09-23T10:51:25.384Z,23.50
2018-09-23T10:53:54.705Z,23.50
2018-09-23T10:56:23.980Z,23.40
2018-09-23T10:58:53.357Z,23.50
2018-09-23T11:01:22.721Z,23.50
2018-09-23T11:03:52.049Z,23.50
2018-09-23T11:06:21.457Z,23.50
2018-09-23T11:08:50.733Z,23.50
2018-09-23T11:11:20.187Z,23.50
2018-09-23T11:13:49.650Z,23.50
2018-09-23T11:16:19.140Z,23.50
2018-09-23T11:18:48.425Z,23.50
2018-09-23T11:21:17.818Z,23.50
2018-09-23T11:23:47.140Z,23.50
2018-09-23T11:26:16.401Z,23.50
2018-09-23T11:28:45.713Z,23.50
2018-09-23T11:31:15.032Z,23.50
2018-09-23T11:33:44.251Z,23.50
2018-09-23T11:36:13.629Z,23.50
2018-09-23T11:38:42.927Z,23.50
2018-09-23T11:41:12.219Z,23.50
2018-09-23T11:43:41.454Z,23.50
2018-09-23T11:46:10.830Z,23.50
2018-09-23T11:48:40.142Z,23.50
2018-09-23T11:51:09.534Z,23.50
2018-09-23T11:53:38.889Z,23.50
2018-09-23T11:56:08.311Z,23.50
2018-09-23T11:58:37.617Z,23.50
2018-09-23T12:01:06.975Z,23.50
2018-09-23T12:03:36.290Z,23.50
2018-09-23T12:06:05.679Z,23.50
2018-09-23T12:08:34.947Z,23.50
2018-09-23T12:11:04.254Z,23.50
2018-09-23T12:13:33.558Z,23.50
2018-09-23T12:16:02.886Z,23.50
2018-09-23T12:18:32.277Z,23.50
2018-09-23T12:21:01.605Z,23.50
2018-09-23T12:23:30.930Z,23.50
2018-09-23T12:26:00.366Z,23.60
2018-09-23T12:28:29.688Z,23.50
2018-09-23T12:30:59.002Z,23.50
2018-09-23T12:33:28.273Z,23.60
2018-09-23T12:36:01.725Z,23.60
2018-09-23T12:38:32.094Z,23.50
2018-09-23T12:41:01.451Z,23.50
2018-09-23T12:43:30.796Z,23.60
2018-09-23T12:46:00.088Z,23.50
2018-09-23T12:48:29.447Z,23.50
2018-09-23T12:50:58.934Z,23.50
2018-09-23T12:53:28.232Z,23.60
2018-09-23T12:55:57.541Z,23.50
2018-09-23T12:58:28.091Z,23.60
2018-09-23T13:00:57.452Z,23.60
2018-09-23T13:03:26.716Z,23.60
2018-09-23T13:05:56.040Z,23.60
2018-09-23T13:08:25.300Z,23.60
2018-09-23T13:10:54.635Z,23.60
2018-09-23T13:13:23.979Z,23.50
2018-09-23T13:15:53.372Z,23.60
2018-09-23T13:18:22.841Z,23.60
2018-09-23T13:20:59.552Z,23.60
2018-09-23T13:23:28.870Z,23.60
2018-09-23T13:25:58.192Z,23.60
2018-09-23T13:28:27.529Z,23.60
2018-09-23T13:30:56.904Z,23.50
2018-09-23T13:33:26.202Z,23.60
2018-09-23T13:35:55.476Z,23.50
2018-09-23T13:38:24.837Z,23.60
2018-09-23T13:40:54.112Z,23.60
2018-09-23T13:43:23.387Z,23.60
2018-09-23T13:45:52.721Z,23.60
2018-09-23T13:48:22.188Z,23.60
2018-09-23T13:50:51.457Z,23.60
2018-09-23T13:53:20.770Z,23.60
2018-09-23T13:55:50.065Z,23.60
2018-09-23T13:58:19.461Z,23.60
2018-09-23T14:00:49.181Z,23.60
2018-09-23T14:03:18.649Z,23.60
2018-09-23T14:05:47.987Z,23.60
2018-09-23T14:08:17.414Z,23.50
2018-09-23T14:10:46.713Z,23.60
2018-09-23T14:13:16.075Z,23.60
2018-09-23T14:15:45.352Z,23.60
2018-09-23T14:18:14.792Z,23.60
2018-09-23T14:20:44.191Z,23.50
2018-09-23T14:23:13.577Z,23.60
2018-09-23T14:25:43.131Z,23.60
2018-09-23T14:28:12.453Z,23.60
2018-09-23T14:30:41.823Z,23.60
2018-09-23T14:33:11.396Z,23.60
2018-09-23T14:35:40.749Z,23.60
2018-09-23T14:38:10.040Z,23.60
2018-09-23T14:40:39.379Z,23.60
2018-09-23T14:43:08.721Z,23.60
2018-09-23T14:45:38.133Z,23.60
2018-09-23T14:48:07.580Z,23.60
2018-09-23T14:50:36.902Z,23.60
2018-09-23T14:53:06.315Z,23.50
2018-09-23T14:55:35.597Z,23.60
2018-09-23T14:58:05.156Z,23.60
2018-09-23T15:00:34.726Z,23.60
2018-09-23T15:03:03.963Z,23.60
2018-09-23T15:05:33.368Z,23.60
2018-09-23T15:08:02.775Z,23.60
2018-09-23T15:10:32.069Z,23.60
2018-09-23T15:13:01.408Z,23.50
2018-09-23T15:15:30.830Z,23.50
2018-09-23T15:18:00.319Z,23.60
2018-09-23T15:20:29.709Z,23.70
2018-09-23T15:22:59.016Z,23.70
2018-09-23T15:25:28.357Z,23.60
2018-09-23T15:27:57.925Z,23.70
2018-09-23T15:30:27.282Z,23.60
2018-09-23T15:32:56.622Z,23.70
2018-09-23T15:35:25.931Z,23.70
2018-09-23T15:37:55.460Z,23.60
2018-09-23T15:40:24.837Z,23.70
2018-09-23T15:42:54.186Z,23.70
2018-09-23T15:45:23.524Z,23.70
2018-09-23T15:47:52.855Z,23.70
2018-09-23T15:50:22.197Z,23.70
2018-09-23T15:52:51.822Z,23.70
2018-09-23T15:55:21.168Z,23.70
2018-09-23T15:57:50.565Z,23.70
2018-09-23T16:00:19.867Z,23.70
2018-09-23T16:02:49.520Z,23.70
2018-09-23T16:05:18.881Z,23.70
2018-09-23T16:07:48.326Z,23.70
2018-09-23T16:10:17.734Z,23.70
2018-09-23T16:12:47.088Z,23.70
2018-09-23T16:15:16.392Z,23.70
2018-09-23T16:17:45.876Z,23.70
2018-09-23T16:20:15.252Z,23.70
2018-09-23T16:22:44.480Z,23.70
2018-09-23T16:25:13.784Z,23.70
2018-09-23T16:27:43.109Z,23.70
2018-09-23T16:30:12.477Z,23.70
2018-09-23T16:32:41.848Z,23.70
2018-09-23T16:35:11.370Z,23.70
2018-09-23T16:37:40.783Z,23.70
2018-09-23T16:40:10.285Z,23.70
2018-09-23T16:42:39.688Z,23.80
2018-09-23T16:45:09.066Z,23.80
2018-09-23T16:47:38.435Z,23.80
2018-09-23T16:50:07.875Z,23.80
2018-09-23T16:52:37.153Z,23.80
2018-09-23T16:55:06.471Z,23.80
2018-09-23T16:57:35.852Z,23.80
2018-09-23T17:00:05.163Z,23.70
2018-09-23T17:02:34.454Z,23.70
2018-09-23T17:05:03.801Z,23.70
2018-09-23T17:07:33.480Z,23.70
2018-09-23T17:10:02.905Z,23.70
2018-09-23T17:12:32.224Z,23.70
2018-09-23T17:15:01.712Z,23.70
2018-09-23T17:17:31.060Z,23.70
2018-09-23T17:20:00.400Z,23.70
2018-09-23T17:22:29.716Z,23.70
2018-09-23T17:24:58.993Z,23.70
2018-09-23T17:27:28.304Z,23.70
2018-09-23T17:29:57.741Z,23.70
2018-09-23T17:32:27.179Z,23.80
2018-09-23T17:34:56.521Z,23.80
2018-09-23T17:37:25.924Z,23.80
2018-09-23T17:39:55.250Z,23.80
2018-09-23T17:42:24.566Z,23.90
2018-09-23T17:44:54.967Z,23.90
2018-09-23T17:47:24.339Z,23.90
2018-09-23T17:49:53.672Z,24.00
2018-09-23T17:52:23.121Z,24.00
2018-09-23T17:54:52.582Z,24.00
2018-09-23T17:57:21.893Z,24.00
2018-09-23T17:59:51.174Z,24.10
2018-09-23T18:02:20.495Z,24.10
2018-09-23T18:04:49.849Z,24.00
2018-09-23T18:07:19.163Z,24.00
2018-09-23T18:09:48.391Z,24.10
2018-09-23T18:12:18.093Z,24.00
2018-09-23T18:14:47.463Z,24.10
2018-09-23T18:17:16.968Z,24.00
2018-09-23T18:19:53.086Z,24.00
2018-09-23T18:22:22.810Z,24.00
2018-09-23T18:24:52.135Z,24.00
2018-09-23T18:27:21.536Z,24.10
2018-09-23T18:29:51.459Z,24.10
2018-09-23T18:32:20.804Z,24.10
2018-09-23T18:34:50.169Z,24.10
2018-09-23T18:37:20.639Z,24.20
2018-09-23T18:39:51.749Z,24.30
2018-09-23T18:42:21.073Z,24.40
2018-09-23T18:44:50.468Z,24.40
2018-09-23T18:47:22.038Z,24.40
2018-09-23T18:49:51.399Z,24.30
2018-09-23T18:52:20.779Z,24.30
2018-09-23T18:54:55.144Z,24.20
2018-09-23T18:57:24.454Z,24.20
2018-09-23T18:59:53.680Z,24.10
2018-09-23T19:02:22.876Z,24.10
2018-09-23T19:04:52.253Z,24.10
2018-09-23T19:07:21.640Z,24.10
2018-09-23T19:09:50.808Z,24.10
2018-09-23T19:12:20.046Z,24.10
2018-09-23T19:14:49.261Z,24.10
2018-09-23T19:17:18.598Z,24.20
2018-09-23T19:19:53.483Z,24.20
2018-09-23T19:22:27.833Z,24.10
2018-09-23T19:24:57.025Z,24.10
2018-09-23T19:27:26.481Z,24.10
2018-09-23T19:29:55.682Z,24.10
2018-09-23T19:32:24.920Z,24.00
2018-09-23T19:34:54.085Z,24.00
2018-09-23T19:37:23.616Z,24.00
2018-09-23T19:39:52.854Z,24.00
2018-09-23T19:42:22.126Z,24.10
2018-09-23T19:44:51.360Z,24.10
2018-09-23T19:48:49.750Z,24.10
2018-09-23T19:51:18.972Z,24.20
2018-09-23T19:53:48.168Z,24.20
2018-09-23T19:56:17.448Z,24.20
2018-09-23T19:58:46.641Z,24.20
2018-09-23T20:01:15.833Z,24.20
2018-09-23T20:03:45.030Z,24.10
2018-09-23T20:06:14.307Z,24.10
2018-09-23T20:08:43.500Z,24.00
2018-09-23T20:11:12.728Z,24.00
2018-09-23T20:13:41.971Z,24.00
2018-09-23T20:16:11.440Z,24.00
2018-09-23T20:18:40.729Z,24.00
2018-09-23T20:21:09.923Z,24.00
2018-09-23T20:23:39.104Z,24.00
2018-09-23T20:26:08.298Z,24.00
2018-09-23T20:28:37.496Z,24.00
2018-09-23T20:31:06.716Z,23.90
2018-09-23T20:33:35.895Z,23.90
2018-09-23T20:36:05.157Z,23.90
2018-09-23T20:38:34.341Z,23.90
2018-09-23T20:41:03.515Z,23.90
2018-09-23T20:43:32.691Z,23.90
2018-09-23T20:46:01.885Z,23.90
2018-09-23T20:48:31.488Z,23.90
2018-09-23T20:51:00.855Z,23.90
2018-09-23T20:53:30.089Z,23.90
2018-09-23T20:55:59.286Z,23.90
2018-09-23T20:58:28.485Z,23.90
2018-09-23T21:00:57.741Z,23.90
2018-09-23T21:03:26.940Z,23.90
2018-09-23T21:05:56.139Z,23.90
2018-09-23T21:08:25.376Z,23.80
2018-09-23T21:10:54.598Z,23.80
2018-09-23T21:13:23.804Z,23.80
2018-09-23T21:15:53.077Z,23.80
2018-09-23T21:18:22.345Z,23.80
2018-09-23T21:20:51.544Z,23.80
2018-09-23T21:23:20.899Z,23.80
2018-09-23T21:25:50.107Z,23.80
2018-09-23T21:28:19.329Z,23.80
2018-09-23T21:30:48.522Z,23.80
2018-09-23T21:33:17.728Z,23.80
2018-09-23T21:35:46.925Z,23.80
2018-09-23T21:38:16.359Z,23.80
2018-09-23T21:40:45.600Z,23.80
2018-09-23T21:43:14.820Z,23.80
2018-09-23T21:45:44.015Z,23.70
2018-09-23T21:48:13.229Z,23.70
2018-09-23T21:50:42.429Z,23.70
2018-09-23T21:53:11.627Z,23.70
2018-09-23T21:55:41.007Z,23.70
2018-09-23T21:58:10.261Z,23.70
2018-09-23T22:00:43.788Z,23.70
2018-09-23T22:03:14.428Z,23.70
2018-09-23T22:05:43.619Z,23.70
2018-09-23T22:08:13.425Z,23.70
2018-09-23T22:10:42.626Z,23.70
2018-09-23T22:13:11.822Z,23.70
2018-09-23T22:15:41.044Z,23.70
2018-09-23T22:18:10.397Z,23.70
2018-09-23T22:20:39.621Z,23.70
2018-09-23T22:23:08.818Z,23.70
2018-09-23T22:25:38.021Z,23.60
2018-09-23T22:28:07.351Z,23.60
2018-09-23T22:30:36.549Z,23.50
2018-09-23T22:33:05.745Z,23.50
2018-09-23T22:35:34.936Z,23.40
2018-09-23T22:38:04.143Z,23.30
2018-09-23T22:40:33.311Z,23.30
2018-09-23T22:43:02.503Z,23.40
2018-09-23T22:45:31.812Z,23.40
2018-09-23T22:48:01.264Z,23.50
2018-09-23T22:50:30.435Z,23.50
2018-09-23T22:52:59.684Z,23.50
2018-09-23T22:55:28.888Z,23.60
2018-09-23T22:57:58.178Z,23.60
2018-09-23T23:00:27.531Z,23.60
2018-09-23T23:02:56.817Z,23.60
2018-09-23T23:05:26.002Z,23.60
2018-09-23T23:07:55.236Z,23.60
2018-09-23T23:10:24.399Z,23.60
2018-09-23T23:12:53.976Z,23.60
2018-09-23T23:15:23.133Z,23.50
2018-09-23T23:17:52.333Z,23.50
2018-09-23T23:20:21.701Z,23.50
2018-09-23T23:22:50.897Z,23.50
2018-09-23T23:25:20.096Z,23.50
2018-09-23T23:27:49.329Z,23.50
2018-09-23T23:30:18.605Z,23.50
2018-09-23T23:32:47.843Z,23.50
2018-09-23T23:35:17.024Z,23.50
2018-09-23T23:37:46.219Z,23.50
2018-09-23T23:40:15.418Z,23.50
2018-09-23T23:42:44.614Z,23.50
2018-09-23T23:45:13.809Z,23.50
2018-09-23T23:47:43.085Z,23.50
2018-09-23T23:50:12.287Z,23.50
2018-09-23T23:52:41.485Z,23.50
2018-09-23T23:55:10.678Z,23.50
2018-09-23T23:57:39.922Z,23.50
